Hlavní strana
METAR-TAF:

METAR-TAF

Letiště :

Karáčí, Pákistán

Mezinárodní letiště Džinnáh

zeměpisná šířka: 24-54N, zeměpisná délka: 067-08E, výška: 21 m

Aktuální stav počasí

Zpráva byla vytvořena před 29 minutami, v 06:55 UTC
Východoseverovýchodní vítr 3 kt
Teplota 25°C
Vlhkost vzduchu 14%
Tlak 1018 hPa
Viditelnost: 5000 m
zákal

METAR: OPKC 200655Z 06003KT 5000 HZ NSC 25/M04 Q1018 NOSIG

Čas: 12:24 (07:24 UTC)

Předpověď počasí

Zpráva byla vytvořena před 3 hodinami a 24 minutami, v 04:00 UTC
Předpověď platná od 20 v 06 UTC do 21 v 12 UTC
Jihozápadní vítr 5 kt s nárazy do 15 kt
Viditelnost: 7000 m
Dočasný
od 20 v 12 UTC do 20 v 16 UTC
Západojihozápadní vítr 7 kt
Viditelnost: 4000 m
kouř
Změna
od 20 v 16 UTC do 20 v 18 UTC
Viditelnost: 5000 m
kouř
Dočasný
od 21 v 00 UTC do 21 v 04 UTC
Severoseverovýchodní vítr 5 kt
Viditelnost: 3000 m
kouř

TAF: OPKC 200400Z 2006/2112 23005G15KT 7000 NSC TEMPO 2012/2016 25007KT 4000 FU NSC BECMG 2016/2018 3005KT 5000 FU NSC TEMPO 2100/2104 02005KT 3000 FU NSC

Stav a předpovědi počasí z více než 4 000 letišť (zprávy METAR a TAF).

Červené a žluté tečky na mapě představují dostupné meteorologické stanice.

Když kurzor umístíte na tečku, zobrazí se název stanice.

Pak kliknutím zobrazíte stav a předpověď počasí.

Chcete-li změnit mapu, kliknutím na zelené tlačítko se znaménkem +mapu přiblížíte, kliknutím na zelené tlačítko se znaménkem – mapu oddálíte a kliknutím na zelené šipky přejdete na sousední mapy.


METAR-TAF: